Latest Weather Observations for Kununurra Airport

IDW60801

Issued at 6:02 pm WST Sunday 14 February 2016 (issued every 30 minutes, with the page automatically refreshed every 10 minutes)

About weather observations | Map of weather stations | Latest weather observations for WA | Other Formats
Station Details ID: 002056 Name: KUNUNURRA AERO Lat: -15.78 Lon: 128.71 Height: 44.0 m
Data from the previous 72 hours. | See also: Recent months at Kununurra Airport
Date/Time
WST
Temp
°C
App
Temp
°C
Dew
Point
Rel
Hum
%
Delta-T
°C
Wind Press
QNH
hPa
Press
MSL
hPa
Rain
since 9 am
mm
Dir
 
Spd
km/h
Gust
km/h
Spd
kts
Gust
kts
14/06:00pm 37.8 39.7 19.7 34 12.2 SE 9 11 5 6 1006.5 1006.2 0.0
14/05:30pm 38.0 40.0 19.9 35 12.2 E 9 11 5 6 1006.3 1006.0 0.0
14/05:00pm 38.8 40.5 18.6 30 13.4 E 7 9 4 5 1005.8 1005.5 0.0
14/04:30pm 40.2 42.1 19.8 30 13.8 S 9 13 5 7 1005.4 1005.1 0.0
14/04:00pm 40.0 41.1 18.0 27 14.5 S 9 13 5 7 1005.4 1005.1 0.0
14/03:30pm 40.0 41.4 18.6 29 14.2 SSW 9 13 5 7 1005.5 1005.2 0.0
14/03:00pm 40.0 41.4 18.6 29 14.3 WSW 9 15 5 8 1005.8 1005.5 0.0
14/02:30pm 40.7 43.2 20.2 30 13.9 S 7 13 4 7 1006.1 1005.8 0.0
14/02:00pm 39.8 41.7 20.5 32 13.2 S 11 19 6 10 1006.3 1006.0 0.0
14/01:30pm 39.4 41.6 19.6 31 13.3 W 7 13 4 7 1006.5 1006.2 0.0
14/01:00pm 39.5 41.8 20.7 33 12.8 S 9 17 5 9 1006.7 1006.4 0.0
14/12:30pm 39.0 40.9 19.8 32 12.9 SE 9 17 5 9 1007.1 1006.8 0.0
14/12:00pm 39.1 41.2 21.7 36 12.0 SSE 13 17 7 9 1007.6 1007.3 0.0
14/11:30am 38.3 39.2 20.1 34 12.3 W 15 20 8 11 1007.9 1007.6 0.0
14/11:00am 38.6 41.7 22.2 39 11.4 WNW 9 15 5 8 1008.2 1007.9 0.0
14/10:30am 37.4 39.9 21.1 38 11.1 WSW 9 11 5 6 1008.7 1008.4 0.0
14/10:00am 36.8 39.1 21.4 41 10.5 WSW 11 19 6 10 1009.0 1008.7 0.0
14/09:30am 35.9 37.2 21.7 43 9.7 WNW 17 24 9 13 1009.1 1008.8 0.0
14/09:00am 35.8 38.7 23.1 48 8.8 W 13 24 7 13 1009.3 1009.0 0.0
14/08:30am 34.6 36.5 21.3 46 9.0 WSW 13 24 7 13 1009.5 1009.2 0.0
14/08:00am 33.6 36.2 23.3 55 7.2 SW 15 22 8 12 1009.5 1009.2 0.0
14/07:30am 32.5 35.5 23.4 58 6.3 WSW 13 17 7 9 1009.5 1009.2 0.0
14/07:00am 31.0 35.9 24.4 68 4.6 WSW 6 9 3 5 1009.3 1009.0 0.0
14/06:30am 29.3 35.8 25.1 78 3.0 CALM 0 0 0 0 1009.1 1008.8 0.0
14/06:00am 27.2 34.2 25.8 92 1.0 CALM 0 0 0 0 1008.9 1008.6 0.0
14/05:30am 25.6 31.6 24.2 92 1.0 CALM 0 0 0 0 1008.7 1008.4 0.0
14/05:00am 26.3 31.9 24.3 89 1.4 S 2 6 1 3 1008.4 1008.1 0.0
14/04:30am 25.7 30.4 23.9 90 1.2 WNW 6 9 3 5 1008.0 1007.7 0.0
14/04:00am 26.6 31.5 24.4 88 1.5 N 6 9 3 5 1007.7 1007.4 0.0
14/03:30am 26.6 31.3 24.3 87 1.6 NNW 7 9 4 5 1007.4 1007.1 0.0
14/03:00am 26.8 31.5 23.9 84 2.0 NNW 6 13 3 7 1007.2 1006.9 0.0
14/02:30am 27.2 31.7 23.9 82 2.3 N 7 9 4 5 1007.2 1006.9 0.0
14/02:00am 26.9 31.4 23.6 82 2.3 N 6 6 3 3 1007.3 1007.0 0.0
14/01:30am 27.8 32.0 23.4 77 3.0 N 7 9 4 5 1007.5 1007.2 0.0
14/01:00am 28.0 31.7 23.2 75 3.3 N 9 11 5 6 1007.7 1007.4 0.0
14/12:30am 28.2 31.8 23.1 74 3.5 N 9 13 5 7 1008.1 1007.8 0.0
14/12:00am 28.4 32.4 23.1 73 3.6 N 7 11 4 6 1008.4 1008.1 0.0
 
Date/Time
WST
Temp
°C
App
Temp
°C
Dew
Point
Rel
Hum
%
Delta-T
°C
Wind Press
QNH
hPa
Press
MSL
hPa
Rain
since 9 am
mm
Dir
 
Spd
km/h
Gust
km/h
Spd
kts
Gust
kts
13/11:30pm 28.8 32.4 23.0 71 4.0 N 9 11 5 6 1008.7 1008.4 0.0
13/11:00pm 28.7 32.5 23.4 73 3.6 N 9 13 5 7 1008.9 1008.6 0.0
13/10:30pm 29.3 32.4 23.5 71 4.0 N 13 13 7 7 1009.2 1008.9 0.0
13/10:00pm 29.9 34.4 23.6 69 4.4 N 6 9 3 5 1009.5 1009.2 0.0
13/09:30pm 29.8 33.8 23.7 70 4.2 N 9 11 5 6 1009.6 1009.3 0.0
13/09:00pm 30.4 34.4 23.8 68 4.6 N 9 11 5 6 1009.5 1009.2 0.0
13/08:30pm 30.7 33.8 23.6 66 4.9 N 13 15 7 8 1009.2 1008.9 0.0
13/08:00pm 31.3 34.0 22.9 61 5.8 N 13 13 7 7 1008.8 1008.5 0.0
13/07:30pm 31.4 34.4 22.7 60 6.0 N 11 15 6 8 1008.4 1008.1 0.0
13/07:00pm 32.9 35.6 21.4 50 7.8 NNE 9 13 5 7 1007.8 1007.5 0.0
13/06:30pm 33.7 35.5 21.2 48 8.5 N 13 15 7 8 1007.3 1007.0 0.0
13/06:00pm 35.2 38.0 21.5 45 9.3 N 9 9 5 5 1006.9 1006.6 0.0
13/05:30pm 36.8 38.9 20.1 37 11.2 NNE 9 11 5 6 1006.6 1006.3 0.0
13/05:00pm 38.0 39.6 19.9 35 12.2 NNE 11 15 6 8 1006.3 1006.0 0.0
13/04:30pm 38.5 39.2 18.9 32 13.0 N 13 19 7 10 1006.1 1005.8 0.0
13/04:00pm 38.3 39.8 19.7 34 12.5 N 11 19 6 10 1006.0 1005.7 0.0
13/03:30pm 38.7 40.2 19.0 31 13.1 N 9 15 5 8 1006.1 1005.8 0.0
13/03:00pm 38.4 39.2 20.7 36 12.1 N 17 20 9 11 1006.2 1005.9 0.0
13/02:30pm 40.1 40.2 19.2 29 14.0 ESE 17 30 9 16 1006.2 1005.9 0.0
13/02:00pm 39.7 37.0 16.6 26 15.0 E 26 39 14 21 1006.4 1006.1 0.0
13/01:30pm 40.1 38.1 17.5 26 14.8 ENE 24 35 13 19 1006.6 1006.3 0.0
13/01:00pm 39.2 39.1 17.9 28 14.0 ESE 15 20 8 11 1007.0 1006.7 0.0
13/12:30pm 38.8 40.0 20.6 35 12.4 SSE 15 19 8 10 1007.4 1007.1 0.0
13/12:00pm 38.3 41.6 21.9 38 11.3 S 7 19 4 10 1007.8 1007.5 0.0
13/11:30am 38.2 40.9 21.4 37 11.5 SE 9 15 5 8 1008.2 1007.9 0.0
13/11:00am 37.1 38.9 20.4 37 11.3 SSW 11 15 6 8 1008.7 1008.4 0.0
13/10:30am 37.0 39.7 20.7 38 11.0 S 7 15 4 8 1009.2 1008.9 0.0
13/10:00am 36.5 39.0 21.1 40 10.5 SW 9 13 5 7 1009.4 1009.1 0.0
13/09:30am 36.0 39.1 22.2 45 9.5 WSW 9 13 5 7 1009.7 1009.4 0.0
13/09:00am 34.9 38.4 22.9 49 8.3 SW 9 15 5 8 1010.3 1010.0 0.0
13/08:30am 33.8 38.6 24.4 58 6.6 SSW 7 11 4 6 1010.4 1010.1 0.0
13/08:00am 33.0 37.5 23.9 59 6.4 SSW 7 9 4 5 1010.4 1010.1 0.0
13/07:30am 32.0 36.4 23.8 62 5.7 WSW 7 9 4 5 1010.3 1010.0 0.0
13/07:00am 31.2 35.9 24.3 66 4.8 SW 7 9 4 5 1010.1 1009.8 0.0
13/06:30am 29.8 35.8 24.2 72 3.9 CALM 0 0 0 0 1010.0 1009.7 0.0
13/06:00am 29.1 35.9 25.5 81 2.5 CALM 0 0 0 0 1009.6 1009.3 0.0
13/05:30am 28.0 33.7 25.0 84 2.1 NNE 4 6 2 3 1009.2 1008.9 0.0
13/05:00am 28.0 34.5 25.0 84 2.1 CALM 0 0 0 0 1008.8 1008.5 0.0
13/04:30am 28.2 34.7 25.0 83 2.2 CALM 0 0 0 0 1008.5 1008.2 0.0
13/04:00am 28.2 34.8 25.2 84 2.1 CALM 0 2 0 1 1008.3 1008.0 0.0
13/03:30am 28.0 33.0 25.4 86 1.8 NNW 9 9 5 5 1008.2 1007.9 0.0
13/03:00am 28.1 33.3 25.7 87 1.7 NW 9 11 5 6 1008.0 1007.7 0.0
13/02:30am 28.3 34.6 25.3 84 2.1 N 2 9 1 5 1008.0 1007.7 0.0
13/02:00am 28.6 35.3 25.4 83 2.3 CALM 0 0 0 0 1007.9 1007.6 0.0
13/01:30am 28.8 35.3 25.0 80 2.7 CALM 0 0 0 0 1008.0 1007.7 0.0
13/01:00am 29.2 35.5 24.7 77 3.2 CALM 0 0 0 0 1008.3 1008.0 0.0
13/12:30am 29.1 34.7 24.9 78 2.9 NW 4 7 2 4 1008.4 1008.1 0.0
13/12:00am 29.2 35.8 25.2 79 2.8 CALM 0 0 0 0 1008.7 1008.4 0.0
 
Date/Time
WST
Temp
°C
App
Temp
°C
Dew
Point
Rel
Hum
%
Delta-T
°C
Wind Press
QNH
hPa
Press
MSL
hPa
Rain
since 9 am
mm
Dir
 
Spd
km/h
Gust
km/h
Spd
kts
Gust
kts
12/11:30pm 28.8 34.2 25.2 81 2.5 NW 6 7 3 4 1009.2 1008.9 0.0
12/11:00pm 28.9 33.7 25.1 80 2.7 NW 9 11 5 6 1009.4 1009.1 0.0
12/10:30pm 29.0 34.3 25.0 79 2.8 NW 6 11 3 6 1009.5 1009.2 0.0
12/10:00pm 29.7 35.3 24.3 73 3.8 W 2 6 1 3 1009.5 1009.2 0.0
12/09:30pm 30.3 36.0 23.7 68 4.6 CALM 0 0 0 0 1009.5 1009.2 0.0
12/09:00pm 30.4 35.9 24.1 69 4.4 SSW 2 7 1 4 1009.5 1009.2 0.0
12/08:30pm 30.1 34.2 24.0 70 4.2 WNW 9 11 5 6 1009.3 1009.0 0.0
12/08:00pm 30.1 34.8 24.3 71 4.1 NNW 7 11 4 6 1009.1 1008.8 0.0
12/07:30pm 30.6 36.1 24.7 71 4.1 SW 4 6 2 3 1008.4 1008.1 0.0
12/07:00pm 30.4 35.1 24.3 70 4.3 WNW 7 9 4 5 1008.1 1007.8 0.0
12/06:30pm 30.2 34.3 24.6 72 3.9 NW 11 15 6 8 1007.8 1007.5 0.0
12/06:00pm 30.8 32.9 23.7 66 4.9 NW 19 22 10 12 1007.7 1007.4 0.0
12/05:30pm 30.5 33.9 22.7 63 5.3 W 9 13 5 7 1007.2 1006.9 0.0
12/05:00pm 33.6 37.5 23.6 56 7.0 SE 9 13 5 7 1006.9 1006.6 0.0
12/04:30pm 34.0 37.6 23.7 55 7.2 NE 11 17 6 9 1006.2 1005.9 0.0
12/04:00pm 34.4 36.7 23.4 52 7.7 NNE 17 24 9 13 1005.8 1005.5 0.0
12/03:30pm 33.5 36.5 22.0 51 7.9 NW 9 11 5 6 1005.5 1005.2 0.0
12/03:00pm 33.3 36.3 22.7 53 7.3 N 11 15 6 8 1005.6 1005.3 0.0
12/02:30pm 35.2 38.1 22.5 47 8.8 WNW 11 13 6 7 1005.4 1005.1 0.0
12/02:00pm 34.9 36.5 22.2 47 8.7 WNW 17 24 9 13 1005.9 1005.6 0.0
12/01:30pm 35.4 37.5 22.4 47 9.0 NNW 15 20 8 11 1006.4 1006.1 0.0
12/01:00pm 35.2 36.8 22.9 49 8.5 NNE 19 35 10 19 1006.6 1006.3 0.0
12/12:30pm 36.8 38.8 22.2 43 10.1 E 15 20 8 11 1006.8 1006.5 0.0
12/12:00pm 37.1 38.8 21.6 40 10.6 ENE 15 24 8 13 1007.1 1006.8 0.0
12/11:30am 36.5 37.9 21.1 40 10.5 E 15 24 8 13 1007.6 1007.3 0.0
12/11:00am 36.9 39.5 21.9 42 10.3 NE 11 22 6 12 1008.0 1007.7 0.0
12/10:30am 36.6 40.2 22.0 43 10.0 NNE 6 13 3 7 1008.5 1008.2 0.0
12/10:00am 35.2 37.7 21.1 43 9.6 S 9 15 5 8 1008.9 1008.6 0.0
12/09:30am 35.2 38.7 21.8 45 9.2 NNW 6 11 3 6 1009.1 1008.8 0.0
12/09:00am 34.5 38.6 22.2 48 8.4 NNW 4 7 2 4 1009.3 1009.0 0.0
12/08:30am 33.3 37.1 22.4 52 7.5 SW 6 7 3 4 1009.4 1009.1 0.0
12/08:00am 33.1 37.9 22.8 54 7.1 ENE 2 7 1 4 1009.7 1009.4 0.0
12/07:30am 31.8 36.0 23.1 60 6.0 ESE 6 7 3 4 1009.6 1009.3 0.0
12/07:00am 30.1 34.2 23.3 67 4.7 SE 7 13 4 7 1009.5 1009.2 0.0
12/06:30am 28.4 32.8 23.8 76 3.2 E 7 9 4 5 1009.2 1008.9 0.0
12/06:00am 26.0 31.5 24.0 89 1.4 NW 2 6 1 3 1008.7 1008.4 0.0
12/05:30am 26.1 30.8 23.4 85 1.8 E 4 7 2 4 1008.6 1008.3 0.0
12/05:00am 25.6 30.1 22.9 85 1.8 SSW 4 7 2 4 1008.4 1008.1 0.0
12/04:30am 26.8 30.4 23.1 80 2.5 SSE 9 11 5 6 1008.3 1008.0 0.0
12/04:00am 26.6 31.3 22.0 76 3.1 CALM 0 0 0 0 1007.7 1007.4 0.0
12/03:30am 25.8 30.5 22.7 83 2.1 NW 2 7 1 4 1007.6 1007.3 0.0
12/03:00am 26.4 31.4 22.5 79 2.6 CALM 0 0 0 0 1007.6 1007.3 0.0
12/02:30am 27.4 31.2 22.4 74 3.4 NNE 6 7 3 4 1007.6 1007.3 0.0
12/02:00am 27.1 30.8 22.3 75 3.2 WNW 6 7 3 4 1007.7 1007.4 0.0
12/01:30am 27.9 32.4 22.2 71 3.8 ENE 2 7 1 4 1007.8 1007.5 0.0
12/01:00am 27.7 31.2 22.2 72 3.7 NNW 7 9 4 5 1007.8 1007.5 0.0
12/12:30am 27.6 30.4 22.3 73 3.6 NNW 11 15 6 8 1007.6 1007.3 0.0
12/12:00am 28.1 29.4 21.6 68 4.4 NNW 17 20 9 11 1007.8 1007.5 0.0
 
Date/Time
WST
Temp
°C
App
Temp
°C
Dew
Point
Rel
Hum
%
Delta-T
°C
Wind Press
QNH
hPa
Press
MSL
hPa
Rain
since 9 am
mm
Dir
 
Spd
km/h
Gust
km/h
Spd
kts
Gust
kts
11/11:30pm 28.2 30.6 21.5 67 4.5 NW 11 13 6 7 1008.3 1008.0 0.0
11/11:00pm 29.5 31.4 21.4 61 5.4 ESE 13 17 7 9 1008.8 1008.5 0.0
11/10:30pm 29.3 30.8 21.3 62 5.4 E 15 20 8 11 1008.8 1008.5 0.0
11/10:00pm 29.5 31.6 21.7 63 5.3 SSE 13 22 7 12 1008.9 1008.6 0.0
11/09:30pm 28.6 31.7 21.1 64 5.0 S 6 9 3 5 1008.1 1007.8 0.0
11/09:00pm 30.2 32.3 19.3 52 7.1 ESE 7 9 4 5 1007.8 1007.5 0.0
11/08:30pm 29.8 31.4 19.2 53 6.9 NNE 9 11 5 6 1007.5 1007.2 0.0
11/08:00pm 30.3 32.1 19.6 52 7.0 NNE 9 13 5 7 1007.2 1006.9 0.0
11/07:30pm 30.4 32.4 20.0 53 6.9 N 9 13 5 7 1006.8 1006.5 0.0
11/07:00pm 31.4 31.7 19.7 49 7.7 N 17 24 9 13 1006.3 1006.0 0.0
11/06:30pm 32.4 32.8 20.6 49 7.9 N 19 24 10 13 1005.7 1005.4 0.0

Other Formats:

Comma delimited format used in spreadsheet applications
http://www.bom.gov.au/fwo/IDW60801/IDW60801.94216.axf

JavaScript Object Notation format (JSON) in row-major order
http://www.bom.gov.au/fwo/IDW60801/IDW60801.94216.json